Time;durP1;ratioP1;P1;durP2;ratioP2;P2;SDS_P1;SDS_P2;PMS_P1;PMS_P2;Temp;Humidity;BMP_temperature;BMP_pressure;BME280_temperature;BME280_humidity;BME280_pressure;Samples;Min_cycle;Max_cycle;Signal;HPM_P1;HPM_P2
2022/07/16 00:03:11;;;;;;;1.00;0.85;;;;;;;30.20;22.02;98491.47;5047605;28;20107;-77
2022/07/16 00:05:37;;;;;;;0.88;0.50;;;;;;;30.43;21.82;98491.00;5047841;28;20036;-77
2022/07/16 00:08:03;;;;;;;1.75;0.70;;;;;;;30.34;21.68;98490.16;5048437;28;20033;-77
2022/07/16 00:10:29;;;;;;;3.53;0.70;;;;;;;30.03;21.94;98490.16;5048966;28;20029;-77
2022/07/16 00:12:56;;;;;;;0.60;0.50;;;;;;;30.14;21.56;98481.22;5049093;28;20468;-77
2022/07/16 00:15:22;;;;;;;1.20;0.65;;;;;;;30.03;21.60;98478.84;5045099;28;20029;-77
2022/07/16 00:19:15;;;;;;;3.63;0.68;;;;;;;30.00;21.55;98468.44;5048221;28;20025;-77
2022/07/16 00:20:34;;;;;;;1.05;0.60;;;;;;;30.16;21.77;98475.88;5047117;28;20037;-77
2022/07/16 00:23:00;;;;;;;1.63;0.68;;;;;;;30.23;21.42;98478.44;5043760;28;20029;-77
2022/07/16 00:25:26;;;;;;;1.00;0.70;;;;;;;30.08;21.08;98475.41;5048747;28;20025;-77
2022/07/16 00:27:53;;;;;;;1.20;0.80;;;;;;;29.79;21.82;98475.72;5049008;28;20473;-77
2022/07/16 00:30:19;;;;;;;4.15;0.70;;;;;;;29.71;21.75;98465.13;5046686;28;20025;-77
2022/07/16 00:32:45;;;;;;;2.50;0.60;;;;;;;29.86;21.47;98460.50;5047096;28;20065;-77
2022/07/16 00:35:11;;;;;;;0.95;0.60;;;;;;;29.68;21.73;98458.34;5045069;28;20052;-77
2022/07/16 00:37:37;;;;;;;1.10;0.60;;;;;;;29.01;22.81;98465.72;5048883;28;20104;-77
2022/07/16 00:40:04;;;;;;;1.20;0.70;;;;;;;28.69;23.04;98461.16;5045257;28;20044;-76
2022/07/16 00:42:30;;;;;;;0.77;0.60;;;;;;;28.85;22.59;98465.84;5048144;28;20060;-76
2022/07/16 00:44:57;;;;;;;2.25;0.60;;;;;;;28.97;22.10;98468.66;5043355;28;20044;-76
2022/07/16 00:47:23;;;;;;;0.98;0.70;;;;;;;29.06;22.23;98463.06;5050122;28;20087;-77
2022/07/16 00:49:49;;;;;;;1.35;0.57;;;;;;;29.10;22.18;98460.88;5045716;28;20033;-77
2022/07/16 00:52:15;;;;;;;1.23;0.75;;;;;;;29.25;22.45;98449.88;5044618;28;20103;-77
2022/07/16 00:54:41;;;;;;;1.00;0.68;;;;;;;29.54;22.01;98458.91;5044867;28;20112;-77
2022/07/16 00:57:07;;;;;;;1.52;0.70;;;;;;;29.69;21.38;98451.41;5047485;28;20067;-77
2022/07/16 00:59:33;;;;;;;0.73;0.55;;;;;;;29.80;20.94;98453.88;5046279;28;20070;-76
2022/07/16 01:02:00;;;;;;;1.23;0.77;;;;;;;29.82;20.97;98454.19;5041292;28;20098;-77
2022/07/16 01:04:27;;;;;;;5.90;2.25;;;;;;;29.41;21.35;98447.66;5049278;28;20037;-77
2022/07/16 01:06:53;;;;;;;3.85;1.00;;;;;;;29.38;21.65;98448.56;5046523;28;20127;-77
2022/07/16 01:09:20;;;;;;;1.30;0.70;;;;;;;29.47;21.28;98447.06;5047463;28;20043;-76
2022/07/16 01:11:47;;;;;;;1.30;0.70;;;;;;;29.52;21.25;98441.59;5044108;28;20033;-77
2022/07/16 01:14:15;;;;;;;1.02;0.55;;;;;;;29.65;21.16;98442.28;5046691;28;20039;-76
2022/07/16 01:16:41;;;;;;;2.38;0.57;;;;;;;29.76;20.89;98442.69;5048006;28;20036;-77
2022/07/16 01:19:10;;;;;;;1.13;0.77;;;;;;;29.66;20.69;98434.59;5045828;28;20029;-77
2022/07/16 01:21:36;;;;;;;0.60;0.50;;;;;;;29.47;21.28;98436.53;5043886;28;20040;-77
2022/07/16 01:24:02;;;;;;;1.05;0.57;;;;;;;29.41;21.07;98425.00;5044853;28;21870;-77
2022/07/16 01:26:28;;;;;;;0.85;0.40;;;;;;;29.31;21.12;98431.09;5047283;28;20065;-76
2022/07/16 01:28:54;;;;;;;2.50;0.70;;;;;;;29.12;21.43;98426.50;5044103;28;20471;-76
2022/07/16 01:31:20;;;;;;;1.00;0.70;;;;;;;29.27;21.34;98428.38;5049372;28;20037;-76
2022/07/16 01:34:24;;;;;;;1.30;0.77;;;;;;;29.42;21.07;98429.44;5045524;28;20558;-76
2022/07/16 01:36:33;;;;;;;1.38;0.80;;;;;;;29.57;21.05;98437.38;5045886;28;20041;-76
2022/07/16 01:38:59;;;;;;;3.25;0.60;;;;;;;29.43;21.00;98438.69;5047007;28;20033;-76
2022/07/16 01:41:25;;;;;;;1.02;0.60;;;;;;;29.45;21.07;98439.03;5046095;28;20037;-76
2022/07/16 01:43:51;;;;;;;1.05;0.65;;;;;;;29.34;21.42;98436.59;5042201;28;20120;-76
2022/07/16 01:46:17;;;;;;;0.63;0.63;;;;;;;29.06;21.20;98436.81;5045666;28;20032;-76
2022/07/16 01:48:43;;;;;;;1.25;0.70;;;;;;;29.13;21.27;98437.34;5047709;28;20128;-76
2022/07/16 01:51:09;;;;;;;1.20;0.50;;;;;;;29.17;21.23;98437.25;5043046;28;20421;-76
2022/07/16 01:53:35;;;;;;;0.63;0.60;;;;;;;29.21;20.99;98424.56;5041555;28;20029;-76
2022/07/16 01:56:01;;;;;;;1.90;0.50;;;;;;;28.87;21.32;98429.47;5046689;28;20451;-76
2022/07/16 01:58:28;;;;;;;0.88;0.45;;;;;;;28.81;21.46;98428.44;5048268;28;20036;-76
2022/07/16 02:00:54;;;;;;;2.22;0.50;;;;;;;28.93;21.22;98424.78;5045916;28;20082;-76
2022/07/16 02:03:20;;;;;;;1.17;0.73;;;;;;;28.97;21.28;98420.59;5047189;28;20094;-76
2022/07/16 02:05:47;;;;;;;0.50;0.50;;;;;;;28.98;21.13;98421.38;5047140;28;20033;-76
2022/07/16 02:08:15;;;;;;;0.65;0.60;;;;;;;29.26;21.02;98426.03;5043883;28;20072;-76
2022/07/16 02:10:41;;;;;;;0.80;0.68;;;;;;;29.43;20.95;98419.66;5044226;28;20028;-76
2022/07/16 02:13:07;;;;;;;1.30;0.70;;;;;;;29.65;21.08;98418.84;5043320;28;20052;-76
2022/07/16 02:15:34;;;;;;;0.75;0.60;;;;;;;29.79;20.50;98421.16;5045914;28;20114;-76
2022/07/16 02:18:00;;;;;;;0.60;0.60;;;;;;;29.83;20.70;98418.97;5043291;28;20454;-76
2022/07/16 02:20:27;;;;;;;0.88;0.50;;;;;;;29.62;20.72;98414.09;5046446;28;20025;-76
2022/07/16 02:22:54;;;;;;;3.25;2.25;;;;;;;29.26;21.11;98412.66;5041194;28;20041;-76
2022/07/16 02:25:20;;;;;;;2.47;1.00;;;;;;;29.01;21.57;98415.59;5046256;28;20036;-76
2022/07/16 02:30:31;;;;;;;7.05;1.75;;;;;;;28.73;22.33;98410.94;5042865;28;20090;-75
2022/07/16 02:32:58;;;;;;;1.35;0.80;;;;;;;28.56;22.80;98415.19;5046038;28;20039;-76
2022/07/16 02:35:24;;;;;;;2.25;0.80;;;;;;;28.49;23.14;98413.41;5046277;28;20033;-76
2022/07/16 02:37:51;;;;;;;2.55;0.90;;;;;;;28.84;22.28;98410.59;5044812;28;20033;-76
2022/07/16 02:40:17;;;;;;;1.73;0.60;;;;;;;29.23;21.83;98413.59;5042050;28;20037;-76
2022/07/16 02:42:43;;;;;;;3.90;0.85;;;;;;;29.48;21.68;98411.84;5047848;28;20028;-76
2022/07/16 02:45:11;;;;;;;1.10;0.80;;;;;;;29.56;21.47;98413.94;5041385;28;20486;-76
2022/07/16 02:47:37;;;;;;;0.63;0.60;;;;;;;29.72;21.14;98408.03;5041187;28;20051;-76
2022/07/16 02:50:06;;;;;;;0.80;0.70;;;;;;;29.97;21.17;98409.88;5042611;28;20038;-76
2022/07/16 02:52:32;;;;;;;0.73;0.52;;;;;;;29.93;21.28;98409.25;5041797;28;20044;-76
2022/07/16 02:54:58;;;;;;;1.38;0.70;;;;;;;29.98;21.08;98419.97;5038173;28;20033;-76
2022/07/16 02:57:24;;;;;;;0.85;0.60;;;;;;;30.02;21.04;98414.94;5037812;28;20060;-76
2022/07/16 02:59:50;;;;;;;1.02;0.70;;;;;;;29.98;20.99;98415.09;5041533;28;20029;-76
2022/07/16 03:02:16;;;;;;;1.00;0.65;;;;;;;30.04;21.13;98416.06;5041533;28;20048;-76
2022/07/16 03:04:42;;;;;;;0.80;0.60;;;;;;;29.72;21.55;98407.25;5042617;28;20037;-76
2022/07/16 03:07:08;;;;;;;1.65;0.90;;;;;;;29.46;22.19;98412.31;5038955;28;20029;-76
2022/07/16 03:09:34;;;;;;;1.67;0.90;;;;;;;29.73;21.70;98409.63;5042300;28;20095;-76
2022/07/16 03:12:01;;;;;;;1.38;0.77;;;;;;;29.87;21.54;98411.13;5041606;28;20025;-76
2022/07/16 03:14:27;;;;;;;1.17;0.80;;;;;;;30.06;21.19;98418.41;5040538;28;20029;-77
2022/07/16 03:16:53;;;;;;;1.40;0.90;;;;;;;29.77;21.30;98412.34;5037453;28;20113;-76
2022/07/16 03:19:19;;;;;;;1.77;0.80;;;;;;;29.36;21.83;98414.28;5041922;28;20098;-76
2022/07/16 03:21:45;;;;;;;1.10;0.70;;;;;;;29.11;22.21;98407.97;5041917;28;20087;-76
2022/07/16 03:24:11;;;;;;;1.00;0.60;;;;;;;28.88;22.91;98416.91;5052550;28;20033;-76
2022/07/16 03:26:37;;;;;;;1.33;0.80;;;;;;;29.27;22.46;98416.25;5040799;28;20378;-77
2022/07/16 03:29:03;;;;;;;0.70;0.70;;;;;;;29.61;22.01;98415.38;5045177;28;20131;-76
2022/07/16 03:31:29;;;;;;;2.00;0.85;;;;;;;30.00;21.79;98420.28;5043317;28;20045;-77
2022/07/16 03:33:55;;;;;;;1.73;0.80;;;;;;;30.16;21.70;98417.19;5045651;28;20037;-78
2022/07/16 03:36:22;;;;;;;0.77;0.77;;;;;;;29.96;21.83;98420.44;5042786;28;20464;-76
2022/07/16 03:39:04;;;;;;;0.98;0.73;;;;;;;30.15;22.01;98423.34;5045123;28;21707;-76
2022/07/16 03:41:31;;;;;;;1.42;0.52;;;;;;;30.84;21.85;98421.59;5044355;28;20079;-76
2022/07/16 03:44:02;;;;;;;1.70;0.80;;;;;;;31.40;21.67;98427.56;5045965;28;20033;-76
2022/07/16 03:46:29;;;;;;;0.70;0.50;;;;;;;31.13;21.50;98424.78;5043988;28;20029;-76
2022/07/16 03:48:55;;;;;;;0.57;0.47;;;;;;;30.84;22.04;98424.41;5041116;28;20116;-76
2022/07/16 03:51:22;;;;;;;2.15;0.85;;;;;;;30.61;22.83;98423.00;5047013;28;20040;-77
2022/07/16 03:53:48;;;;;;;2.50;1.08;;;;;;;30.39;23.17;98425.16;5047429;28;20476;-76
2022/07/16 03:56:15;;;;;;;1.15;0.70;;;;;;;30.24;23.42;98424.16;5044778;28;20057;-76
2022/07/16 03:58:41;;;;;;;2.47;0.68;;;;;;;30.54;23.12;98428.19;5041943;28;20493;-77
2022/07/16 04:01:08;;;;;;;1.27;0.80;;;;;;;30.85;23.22;98425.22;5039173;28;20493;-77
2022/07/16 04:03:35;;;;;;;1.23;0.82;;;;;;;31.09;23.22;98426.97;5043816;28;20037;-77
2022/07/16 04:06:02;;;;;;;3.88;1.10;;;;;;;31.50;22.95;98427.56;5043243;28;20025;-76
2022/07/16 04:08:28;;;;;;;1.20;0.70;;;;;;;31.98;22.77;98426.47;5041546;28;20040;-77
2022/07/16 04:10:54;;;;;;;0.60;0.60;;;;;;;32.36;22.10;98422.97;5042980;28;20029;-77
2022/07/16 04:13:21;;;;;;;2.15;0.93;;;;;;;32.53;21.88;98427.81;5043205;28;20041;-77
2022/07/16 04:15:47;;;;;;;2.60;1.00;;;;;;;32.58;22.31;98429.97;5042043;28;20029;-77
2022/07/16 04:18:13;;;;;;;2.80;1.00;;;;;;;32.72;22.09;98425.63;5042926;28;20484;-77
2022/07/16 04:20:39;;;;;;;0.98;0.80;;;;;;;32.92;22.25;98428.63;5047675;28;20036;-78
2022/07/16 04:23:06;;;;;;;1.73;0.93;;;;;;;33.34;21.80;98434.09;5039802;28;20041;-77
2022/07/16 04:25:32;;;;;;;2.20;0.57;;;;;;;33.43;22.01;98423.41;5053814;28;20037;-77
2022/07/16 04:27:58;;;;;;;3.80;0.80;;;;;;;33.73;21.14;98421.38;5040666;28;20118;-77
2022/07/16 04:30:25;;;;;;;1.20;0.95;;;;;;;33.71;21.19;98426.00;5037507;28;20036;-78
2022/07/16 04:32:51;;;;;;;1.17;1.00;;;;;;;33.32;22.11;98428.91;5045654;28;20122;-77
2022/07/16 04:35:17;;;;;;;1.48;0.77;;;;;;;33.08;22.67;98427.41;5049781;28;20045;-78
2022/07/16 04:37:44;;;;;;;1.45;0.80;;;;;;;33.09;22.38;98418.38;5041846;28;20393;-78
2022/07/16 04:40:12;;;;;;;1.33;0.70;;;;;;;33.23;22.36;98423.31;5044850;28;20170;-78
2022/07/16 04:42:40;;;;;;;2.78;0.63;;;;;;;33.56;21.98;98422.38;5042540;28;20036;-78
2022/07/16 04:45:07;;;;;;;3.35;0.63;;;;;;;34.13;21.60;98412.19;5041369;28;20572;-78
2022/07/16 04:47:33;;;;;;;1.75;0.47;;;;;;;34.67;21.23;98411.44;5042710;28;20032;-77
2022/07/16 04:50:00;;;;;;;1.67;0.70;;;;;;;35.06;20.85;98405.44;5039840;28;20036;-78
2022/07/16 04:52:27;;;;;;;1.13;0.40;;;;;;;35.14;20.80;98420.84;5040083;28;20033;-77
2022/07/16 04:54:53;;;;;;;0.65;0.40;;;;;;;35.09;20.77;98413.00;5040026;28;20116;-77
2022/07/16 04:57:19;;;;;;;1.23;0.40;;;;;;;34.96;20.65;98412.56;5042500;28;20040;-78
2022/07/16 04:59:45;;;;;;;0.98;0.82;;;;;;;35.02;21.00;98410.59;5041802;28;20374;-77
2022/07/16 05:04:55;;;;;;;1.00;0.47;;;;;;;35.27;19.85;98410.59;5041935;28;20051;-78
2022/07/16 05:07:21;;;;;;;0.63;0.28;;;;;;;35.64;19.71;98410.72;5040199;28;20033;-77
2022/07/16 05:09:48;;;;;;;1.00;0.30;;;;;;;35.57;18.92;98416.88;5042071;28;20082;-78
2022/07/16 05:12:14;;;;;;;0.73;0.40;;;;;;;35.41;19.44;98409.72;5042256;28;20029;-78
2022/07/16 05:14:40;;;;;;;0.88;0.30;;;;;;;35.54;20.23;98423.63;5043934;28;20426;-78
2022/07/16 05:17:06;;;;;;;0.60;0.30;;;;;;;35.72;19.96;98417.56;5043994;28;20032;-78
2022/07/16 05:19:32;;;;;;;0.30;0.30;;;;;;;36.00;19.61;98421.47;5043526;28;20120;-78
2022/07/16 05:21:58;;;;;;;1.08;0.47;;;;;;;36.15;19.50;98418.44;5042402;28;21212;-79
2022/07/16 05:24:24;;;;;;;1.17;0.40;;;;;;;36.22;19.61;98417.97;5045897;28;20079;-79
2022/07/16 05:26:50;;;;;;;0.22;0.22;;;;;;;36.25;19.29;98408.34;5040880;28;20037;-78
2022/07/16 05:29:16;;;;;;;0.75;0.35;;;;;;;36.32;20.02;98419.31;5042903;28;20098;-78
2022/07/16 05:31:43;;;;;;;0.68;0.55;;;;;;;36.25;19.20;98404.72;5042265;28;20040;-78
2022/07/16 05:34:09;;;;;;;1.10;0.30;;;;;;;36.38;19.62;98403.00;5050055;28;20509;-78
2022/07/16 05:36:35;;;;;;;0.50;0.40;;;;;;;36.56;18.70;98414.03;5046686;28;20048;-78
2022/07/16 05:39:01;;;;;;;0.30;0.30;;;;;;;36.63;19.33;98409.91;5048750;28;20086;-78
2022/07/16 05:41:28;;;;;;;0.57;0.30;;;;;;;36.79;19.85;98411.28;5046744;28;20423;-78
2022/07/16 05:43:54;;;;;;;0.60;0.40;;;;;;;36.88;18.76;98406.09;5039872;28;20037;-79
2022/07/16 05:46:20;;;;;;;1.95;0.50;;;;;;;36.97;20.13;98411.63;5041020;28;20107;-78
2022/07/16 05:48:46;;;;;;;0.50;0.30;;;;;;;37.01;18.55;98409.31;5042858;28;20036;-78
2022/07/16 05:51:12;;;;;;;0.63;0.30;;;;;;;36.82;18.72;98413.13;5039253;28;20098;-78
2022/07/16 05:53:38;;;;;;;0.30;0.30;;;;;;;36.78;18.40;98410.50;5039026;28;20048;-78
2022/07/16 05:56:04;;;;;;;0.60;0.32;;;;;;;36.72;19.54;98410.47;5039461;28;20079;-78
2022/07/16 05:58:33;;;;;;;0.65;0.65;;;;;;;36.47;18.97;98408.53;5042524;28;20417;-77
2022/07/16 06:01:00;;;;;;;0.60;0.30;;;;;;;36.60;19.07;98408.84;5044052;28;20102;-78
2022/07/16 06:03:26;;;;;;;0.40;0.20;;;;;;;36.44;17.94;98406.66;5042920;28;20044;-78
2022/07/16 06:05:52;;;;;;;0.30;0.25;;;;;;;36.29;18.06;98406.06;5048721;28;20030;-78
2022/07/16 06:08:18;;;;;;;0.28;0.20;;;;;;;35.29;20.50;98405.16;5045190;28;20029;-78
2022/07/16 06:10:44;;;;;;;0.40;0.30;;;;;;;34.78;20.18;98407.13;5036962;28;20866;-78
2022/07/16 06:13:10;;;;;;;1.10;0.35;;;;;;;34.55;19.17;98408.94;5046822;28;20033;-78
2022/07/16 06:15:36;;;;;;;1.95;0.60;;;;;;;34.25;18.95;98401.75;5044753;28;20044;-78
2022/07/16 06:18:03;;;;;;;1.15;0.60;;;;;;;34.20;17.97;98403.22;5043614;28;20086;-78
2022/07/16 06:20:29;;;;;;;0.40;0.35;;;;;;;34.40;19.30;98399.63;5044261;28;20024;-78
2022/07/16 06:22:56;;;;;;;0.90;0.40;;;;;;;33.80;22.19;98400.25;5041393;28;20508;-79
2022/07/16 06:25:23;;;;;;;0.55;0.45;;;;;;;33.89;19.15;98400.91;5042770;28;20150;-78
2022/07/16 06:27:50;;;;;;;2.05;0.50;;;;;;;33.98;18.44;98402.88;5041025;28;20043;-78
2022/07/16 06:30:16;;;;;;;1.13;0.50;;;;;;;33.73;19.31;98404.28;5040759;28;20041;-78
2022/07/16 06:32:43;;;;;;;1.48;0.43;;;;;;;33.40;20.13;98404.47;5038290;28;20060;-78
2022/07/16 06:35:10;;;;;;;3.35;0.80;;;;;;;33.52;19.58;98405.44;5038881;28;20048;-78
2022/07/16 06:37:36;;;;;;;0.85;0.73;;;;;;;33.84;19.74;98398.75;5042762;28;20033;-77
2022/07/16 06:40:03;;;;;;;0.80;0.50;;;;;;;33.89;19.89;98409.47;5038850;28;20028;-78
2022/07/16 06:42:30;;;;;;;2.03;0.70;;;;;;;33.36;20.51;98403.09;5038295;28;20095;-78
2022/07/16 06:44:56;;;;;;;1.23;0.60;;;;;;;33.16;19.61;98403.78;5041800;28;20068;-78
2022/07/16 06:47:22;;;;;;;1.75;0.50;;;;;;;33.70;19.00;98398.81;5041253;28;20055;-77
2022/07/16 06:49:48;;;;;;;1.60;0.60;;;;;;;34.13;19.30;98405.72;5037192;28;20033;-78
2022/07/16 06:52:14;;;;;;;1.08;0.65;;;;;;;34.51;18.39;98399.78;5039658;28;20025;-79
2022/07/16 06:54:40;;;;;;;3.00;0.70;;;;;;;35.17;17.75;98400.63;5039825;28;20055;-77
2022/07/16 06:57:06;;;;;;;1.10;0.60;;;;;;;35.25;18.02;98392.41;5039484;28;20029;-78
2022/07/16 06:59:32;;;;;;;2.60;0.70;;;;;;;35.61;17.13;98399.53;5040072;28;20064;-78
2022/07/16 07:01:59;;;;;;;1.60;0.57;;;;;;;35.80;17.07;98398.66;5036194;28;20033;-77
2022/07/16 07:04:25;;;;;;;0.68;0.40;;;;;;;35.08;19.54;98400.03;5042132;28;20533;-78
2022/07/16 07:06:51;;;;;;;1.08;0.60;;;;;;;34.54;18.22;98384.56;5048854;28;20104;-77
2022/07/16 07:09:17;;;;;;;1.13;0.90;;;;;;;34.95;18.73;98394.66;5042219;28;20087;-78
2022/07/16 07:11:44;;;;;;;0.95;0.50;;;;;;;35.79;18.80;98387.72;5043721;28;20025;-78
2022/07/16 07:14:10;;;;;;;1.30;0.60;;;;;;;36.06;17.84;98392.88;5044837;28;20041;-78
2022/07/16 07:16:37;;;;;;;0.40;0.40;;;;;;;35.48;18.74;98394.19;5044430;28;20041;-78
2022/07/16 07:19:03;;;;;;;2.67;0.43;;;;;;;35.57;17.71;98387.56;5042913;28;20484;-78
2022/07/16 07:21:29;;;;;;;0.65;0.40;;;;;;;35.34;19.68;98390.16;5046220;28;20025;-78
2022/07/16 07:23:57;;;;;;;1.58;0.52;;;;;;;35.34;18.64;98387.31;5043872;28;20099;-77
2022/07/16 07:26:26;;;;;;;1.05;0.43;;;;;;;36.20;17.81;98386.22;5046902;28;20119;-77
2022/07/16 07:28:58;;;;;;;0.98;0.38;;;;;;;36.66;16.67;98391.72;5042872;28;20036;-78
2022/07/16 07:31:24;;;;;;;1.00;0.57;;;;;;;36.05;16.79;98388.47;5041309;28;20361;-77
2022/07/16 07:33:50;;;;;;;1.25;0.73;;;;;;;35.93;17.35;98386.81;5045961;28;20060;-78
2022/07/16 07:36:16;;;;;;;1.17;0.40;;;;;;;36.31;17.17;98394.91;5042064;28;20452;-77
2022/07/16 07:38:42;;;;;;;1.83;0.40;;;;;;;36.73;17.88;98382.66;5042567;28;20065;-77
2022/07/16 07:41:09;;;;;;;0.70;0.35;;;;;;;36.73;16.70;98382.66;5048802;28;20036;-78
2022/07/16 07:43:35;;;;;;;0.60;0.35;;;;;;;35.76;19.33;98383.81;5051193;28;20044;-78
2022/07/16 07:46:01;;;;;;;0.98;0.40;;;;;;;36.17;17.70;98383.63;5044967;28;20056;-78
2022/07/16 07:48:27;;;;;;;0.90;0.30;;;;;;;36.21;17.36;98379.22;5046682;28;20060;-78
2022/07/16 07:50:53;;;;;;;0.65;0.30;;;;;;;35.95;17.59;98382.16;5051708;28;20100;-78
2022/07/16 07:53:19;;;;;;;0.77;0.50;;;;;;;35.73;17.70;98384.81;5048091;28;20093;-78
2022/07/16 07:55:48;;;;;;;1.15;0.63;;;;;;;35.88;16.95;98382.63;5050021;28;20037;-78
2022/07/16 07:58:14;;;;;;;0.93;0.50;;;;;;;36.12;16.62;98379.44;5045580;28;20036;-78
2022/07/16 08:00:41;;;;;;;2.67;0.47;;;;;;;34.72;17.03;98367.94;5049677;28;20362;-78
2022/07/16 08:03:07;;;;;;;0.68;0.40;;;;;;;34.75;17.22;98375.47;5046863;28;20489;-78
2022/07/16 08:05:34;;;;;;;1.08;0.60;;;;;;;34.51;19.47;98377.75;5045280;28;20048;-78
2022/07/16 08:08:00;;;;;;;1.80;0.63;;;;;;;34.51;17.52;98379.81;5050255;28;20033;-78
2022/07/16 08:10:26;;;;;;;1.48;0.50;;;;;;;34.30;17.78;98373.31;5046016;28;20047;-78
2022/07/16 08:12:53;;;;;;;1.00;0.50;;;;;;;34.93;17.26;98370.75;5050152;28;20044;-78
2022/07/16 08:15:24;;;;;;;1.52;0.40;;;;;;;35.21;17.64;98366.94;5048051;28;20032;-77
2022/07/16 08:17:50;;;;;;;1.67;0.70;;;;;;;35.53;17.20;98370.63;5047402;28;20604;-78
2022/07/16 08:20:17;;;;;;;0.75;0.40;;;;;;;35.53;18.27;98378.41;5035754;28;20039;-78
2022/07/16 08:22:43;;;;;;;0.65;0.38;;;;;;;35.77;16.29;98376.81;5040143;28;20489;-78
2022/07/16 08:27:54;;;;;;;0.52;0.40;;;;;;;36.42;15.51;98366.34;5038325;28;20111;-78
2022/07/16 08:30:21;;;;;;;0.50;0.40;;;;;;;36.11;15.33;98366.41;5032532;28;20138;-78
2022/07/16 08:32:47;;;;;;;0.30;0.30;;;;;;;34.51;18.30;98366.34;5032468;28;20037;-77
2022/07/16 08:35:13;;;;;;;0.85;0.50;;;;;;;34.15;18.94;98366.09;5032696;28;20106;-77
2022/07/16 08:37:45;;;;;;;0.52;0.40;;;;;;;34.32;17.57;98364.25;5032059;28;20033;-76
2022/07/16 08:40:19;;;;;;;0.38;0.30;;;;;;;33.94;19.93;98363.19;5032276;28;20033;-77
2022/07/16 08:42:45;;;;;;;1.90;0.60;;;;;;;34.76;17.28;98362.00;5030393;28;20087;-77
2022/07/16 08:45:13;;;;;;;1.13;0.50;;;;;;;35.07;16.90;98358.47;5030258;28;20037;-77
2022/07/16 08:47:39;;;;;;;1.58;0.55;;;;;;;35.24;19.11;98360.22;5035140;28;20047;-76
2022/07/16 08:50:09;;;;;;;0.50;0.40;;;;;;;34.84;19.04;98346.03;5035911;28;20135;-77
2022/07/16 08:52:39;;;;;;;1.02;0.50;;;;;;;34.90;16.83;98355.41;5033937;28;20032;-77
2022/07/16 08:55:06;;;;;;;1.98;0.30;;;;;;;35.28;16.11;98345.72;5032062;28;20283;-77
2022/07/16 08:57:36;;;;;;;1.33;0.40;;;;;;;35.15;16.45;98353.91;5032894;28;20036;-76
2022/07/16 09:00:07;;;;;;;1.02;0.40;;;;;;;34.18;18.14;98345.94;5034043;28;20028;-77
2022/07/16 09:02:34;;;;;;;1.15;0.63;;;;;;;34.66;16.71;98338.53;5035190;28;20069;-76
2022/07/16 09:05:01;;;;;;;0.63;0.30;;;;;;;34.44;18.11;98346.81;5034502;28;20079;-77
2022/07/16 09:07:27;;;;;;;2.47;0.47;;;;;;;34.43;16.56;98338.75;5034012;28;20056;-77
2022/07/16 09:09:53;;;;;;;0.95;0.50;;;;;;;34.68;16.73;98338.06;5039566;28;20045;-78
2022/07/16 09:12:41;;;;;;;0.93;0.40;;;;;;;34.54;16.79;98336.84;5043474;28;21349;-77
2022/07/16 09:15:27;;;;;;;1.20;0.52;;;;;;;34.48;16.70;98333.13;5043514;28;20063;-77
2022/07/16 09:18:12;;;;;;;1.38;0.55;;;;;;;34.54;15.90;98328.28;5043867;28;20378;-77
2022/07/16 09:20:48;;;;;;;0.68;0.40;;;;;;;35.38;17.27;98329.97;5047902;28;20484;-77
2022/07/16 09:23:33;;;;;;;0.93;0.50;;;;;;;34.66;17.51;98332.84;5049018;28;20044;-77
2022/07/16 09:26:02;;;;;;;1.27;0.38;;;;;;;34.63;17.64;98324.50;5043988;28;20048;-77
2022/07/16 09:28:49;;;;;;;1.27;0.55;;;;;;;34.91;16.76;98325.59;5046262;28;20028;-77
2022/07/16 09:31:41;;;;;;;0.95;0.50;;;;;;;35.16;16.03;98329.75;5044241;28;20418;-76
2022/07/16 09:34:09;;;;;;;0.70;0.50;;;;;;;34.92;16.73;98329.22;5042802;28;20036;-77
2022/07/16 09:36:37;;;;;;;1.05;0.50;;;;;;;35.57;15.28;98333.28;5043122;28;20513;-78
2022/07/16 09:39:05;;;;;;;0.70;0.43;;;;;;;35.49;17.08;98330.06;5045238;28;20060;-77
2022/07/16 09:41:44;;;;;;;0.88;0.57;;;;;;;34.98;17.21;98327.22;5042618;28;20029;-78
2022/07/16 09:44:16;;;;;;;0.90;0.30;;;;;;;35.57;16.40;98319.75;5039774;28;20032;-78
2022/07/16 09:47:06;;;;;;;3.33;0.70;;;;;;;35.31;15.56;98334.06;5042279;28;20157;-78
2022/07/16 09:49:38;;;;;;;1.42;0.65;;;;;;;35.40;15.17;98328.16;5041037;28;20130;-78
2022/07/16 09:52:25;;;;;;;0.80;0.30;;;;;;;34.82;17.45;98330.69;5038222;28;20129;-78
2022/07/16 09:54:55;;;;;;;0.82;0.40;;;;;;;34.31;17.06;98331.34;5055245;28;20037;-78
2022/07/16 09:57:23;;;;;;;8.43;0.82;;;;;;;35.21;17.02;98315.56;5041634;28;20025;-78
2022/07/16 09:59:49;;;;;;;1.65;0.50;;;;;;;35.06;15.75;98322.66;5044833;28;20036;-79
2022/07/16 10:02:15;;;;;;;1.05;0.55;;;;;;;35.29;15.38;98310.94;5046028;28;20116;-79
2022/07/16 10:04:41;;;;;;;2.70;0.63;;;;;;;33.97;16.73;98321.50;5044884;28;20029;-78
2022/07/16 10:07:07;;;;;;;0.65;0.30;;;;;;;34.14;16.18;98325.41;5046686;28;20093;-78
2022/07/16 10:09:34;;;;;;;0.70;0.45;;;;;;;34.54;16.74;98327.53;5046697;28;20036;-79
2022/07/16 10:12:10;;;;;;;1.23;0.60;;;;;;;34.07;15.55;98320.13;5039205;28;20485;-78
2022/07/16 10:14:40;;;;;;;2.00;0.57;;;;;;;33.94;16.92;98311.09;5039594;28;20040;-79
2022/07/16 10:17:21;;;;;;;1.00;0.50;;;;;;;33.99;16.75;98319.75;5047150;28;20025;-78
2022/07/16 10:19:57;;;;;;;1.70;0.70;;;;;;;34.72;16.11;98321.50;5047752;28;20112;-78
2022/07/16 10:22:31;;;;;;;1.42;0.40;;;;;;;34.50;16.48;98312.63;5047450;28;20037;-78
2022/07/16 10:24:58;;;;;;;1.65;0.50;;;;;;;33.87;16.80;98303.75;5048391;28;20033;-79
2022/07/16 10:27:27;;;;;;;2.83;0.50;;;;;;;34.34;17.06;98316.88;5046906;28;20037;-78
2022/07/16 10:30:16;;;;;;;2.13;0.50;;;;;;;35.18;16.44;98312.91;5049491;28;20392;-80
2022/07/16 10:33:05;;;;;;;1.05;0.45;;;;;;;36.27;15.44;98307.78;5037336;28;20045;-79
2022/07/16 10:35:39;;;;;;;1.25;0.40;;;;;;;36.99;15.15;98294.53;5046087;28;20527;-79
2022/07/16 10:38:11;;;;;;;1.38;0.50;;;;;;;36.65;15.06;98296.50;5046501;28;20047;-78
2022/07/16 10:40:40;;;;;;;0.90;0.40;;;;;;;35.91;14.78;98295.84;5050627;28;20013;-78
2022/07/16 10:43:24;;;;;;;0.55;0.30;;;;;;;37.03;14.38;98291.41;5051684;28;20037;-78
2022/07/16 10:45:56;;;;;;;0.40;0.40;;;;;;;36.03;15.86;98294.66;5050091;28;20104;-78
2022/07/16 10:48:28;;;;;;;1.15;0.50;;;;;;;35.65;15.19;98291.50;5051225;28;20033;-79
2022/07/16 10:51:20;;;;;;;1.38;0.60;;;;;;;35.28;15.35;98297.19;5052168;28;20052;-78
2022/07/16 10:54:02;;;;;;;1.13;0.40;;;;;;;35.42;15.78;98299.91;5054013;28;20033;-78
2022/07/16 10:56:35;;;;;;;0.60;0.38;;;;;;;35.17;14.91;98292.13;5061922;28;20493;-78
2022/07/16 10:59:03;;;;;;;0.55;0.40;;;;;;;35.09;15.69;98284.53;5058888;28;20033;-78
2022/07/16 11:01:29;;;;;;;1.23;0.70;;;;;;;34.93;16.10;98300.19;5070226;28;20029;-78
2022/07/16 11:03:55;;;;;;;0.95;0.50;;;;;;;33.99;16.58;98282.69;5070445;28;20032;-80
2022/07/16 11:06:23;;;;;;;1.30;0.60;;;;;;;34.21;15.93;98285.09;5070864;28;20043;-78
2022/07/16 11:08:56;;;;;;;0.82;0.50;;;;;;;34.21;16.08;98285.09;5070805;28;20020;-78
2022/07/16 11:11:23;;;;;;;1.27;0.75;;;;;;;34.08;16.26;98284.66;5060172;28;20060;-78
2022/07/16 11:13:52;;;;;;;2.30;1.00;;;;;;;34.55;16.41;98281.38;5051597;28;20033;-78
2022/07/16 11:16:18;;;;;;;0.50;0.40;;;;;;;34.74;16.50;98285.47;5049679;28;20032;-79
2022/07/16 11:18:46;;;;;;;0.65;0.40;;;;;;;34.76;16.05;98284.97;5051545;28;20033;-78
2022/07/16 11:21:12;;;;;;;1.67;0.50;;;;;;;33.98;17.62;98286.06;5034973;28;20494;-78
2022/07/16 11:23:58;;;;;;;1.02;0.52;;;;;;;34.64;15.87;98275.50;5048889;28;20075;-79
2022/07/16 11:26:25;;;;;;;1.48;0.50;;;;;;;35.54;15.67;98285.72;5049790;28;20082;-77
2022/07/16 11:28:59;;;;;;;0.60;0.50;;;;;;;34.12;16.74;98284.44;5049679;28;20044;-77
2022/07/16 11:31:34;;;;;;;2.30;0.80;;;;;;;34.30;16.51;98284.94;5050230;28;20037;-77
2022/07/16 11:34:03;;;;;;;1.60;0.60;;;;;;;34.23;16.36;98291.06;5049475;28;20396;-80
2022/07/16 11:36:35;;;;;;;1.42;0.57;;;;;;;34.02;16.45;98286.63;5044274;28;20107;-81
2022/07/16 11:39:02;;;;;;;0.90;0.52;;;;;;;34.51;16.58;98292.19;5047420;28;20036;-81
2022/07/16 11:41:29;;;;;;;0.90;0.40;;;;;;;34.77;15.60;98285.75;5050071;28;20025;-79
2022/07/16 11:43:56;;;;;;;0.90;0.45;;;;;;;35.09;15.67;98290.25;5048230;28;20555;-81
2022/07/16 11:46:24;;;;;;;1.88;0.50;;;;;;;34.65;16.19;98294.22;5048128;28;20053;-79
2022/07/16 11:48:50;;;;;;;0.85;0.40;;;;;;;34.80;16.82;98290.47;5047412;28;20029;-79